This is the latest recevied weather packets stored in our database for station/object S56IAR-13. If no packets are shown the sender has not sent any weather packets the latest 10 day(s).
| Time | Temp. | Humidity | Pressure | Rain* | Wind** | Luminosity | Snow |
|---|---|---|---|---|---|---|---|
| 1777809005 | 22.78° C | 39% | 964.3 hPa | 0 mm | - | 276 W/m² | - |
| 1777808234 | 23.33° C | 44% | 964.5 hPa | 0 mm | - | 606 W/m² | - |
| 1777806305 | 22.78° C | 42% | 964.5 hPa | 0 mm | - | 270 W/m² | - |
| 1777799103 | 18.89° C | 59% | 965.7 hPa | 0 mm | - | 655 W/m² | - |
| 1777798635 | 18.33° C | 60% | 965.7 hPa | 0 mm | - | 651 W/m² | - |
| 1777797435 | 18.89° C | 61% | 965.6 hPa | 0 mm | - | 610 W/m² | - |
| 1777793403 | 14.44° C | 74% | 965.9 hPa | 0 mm | - | 348 W/m² | - |
| 1777793234 | 13.89° C | 74% | 966 hPa | 0 mm | - | 330 W/m² | - |
| 1777792804 | 13.33° C | 77% | 966 hPa | 0 mm | - | 164 W/m² | - |
| 1777792503 | 12.78° C | 79% | 965.9 hPa | 0 mm | - | 83 W/m² | - |
| 1777790103 | 10° C | 86% | 966 hPa | 0 mm | - | 42 W/m² | - |
| 1777788603 | 7.78° C | 95% | 966 hPa | 0 mm | - | 41 W/m² | - |
| 1777786804 | 6.67° C | 98% | 965.8 hPa | 0 mm | - | 36 W/m² | - |
| 1777782003 | 5° C | 97% | 965.8 hPa | 0 mm | - | 16 W/m² | - |
| 1777780203 | 5° C | 97% | 965.8 hPa | 0 mm | - | 3 W/m² | - |
| 1777779005 | 5° C | 97% | 965.8 hPa | 0 mm | - | 0 W/m² | - |
| 1777776903 | 5.56° C | 97% | 965.9 hPa | 0 mm | - | 0 W/m² | - |
| 1777775705 | 5.56° C | 97% | 966.1 hPa | 0 mm | - | 0 W/m² | - |
| 1777771504 | 6.11° C | 95% | 966.5 hPa | 0 mm | - | 0 W/m² | - |
| 1777769105 | 6.11° C | 95% | 966.6 hPa | 0 mm | - | 0 W/m² | - |
| 1777768505 | 6.67° C | 95% | 966.7 hPa | 0 mm | - | 0 W/m² | - |
| 1777767734 | 6.67° C | 94% | 966.9 hPa | 0 mm | - | 0 W/m² | - |
| 1777765033 | 6.67° C | 94% | 967.3 hPa | 0 mm | - | 0 W/m² | - |
| 1777760405 | 7.78° C | 91% | 967.4 hPa | 0 mm | - | 0 W/m² | - |
| 1777759503 | 7.78° C | 90% | 967.5 hPa | 0 mm | - | 0 W/m² | - |
* Rain latest hour (hover to see other rain measurements)
** Current wind speed in m/s (hover to see current wind gust speed)